createdAt,value
2023-01-17T00:01:14.552Z,19.10
2023-01-17T00:16:17.775Z,16.70
2023-01-17T00:31:21.869Z,15.90
2023-01-17T00:46:43.686Z,13.40
2023-01-17T01:02:05.492Z,13.80
2023-01-17T01:17:27.232Z,13.80
2023-01-17T01:32:52.098Z,15.60
2023-01-17T01:48:15.768Z,12.10
2023-01-17T02:03:26.762Z,9.40
2023-01-17T02:18:42.072Z,11.60
2023-01-17T02:34:00.954Z,10.00
2023-01-17T02:49:04.114Z,9.70
2023-01-17T03:04:15.497Z,9.10
2023-01-17T03:19:18.826Z,8.40
2023-01-17T03:34:22.200Z,9.90
2023-01-17T03:49:25.350Z,8.70
2023-01-17T04:04:28.599Z,10.10
2023-01-17T04:19:34.141Z,11.50
2023-01-17T04:34:37.258Z,9.30
2023-01-17T04:49:41.325Z,11.70
2023-01-17T05:04:45.541Z,11.70
2023-01-17T05:19:48.726Z,16.30
2023-01-17T05:34:52.015Z,39.40
2023-01-17T05:49:55.142Z,24.30
2023-01-17T06:04:58.488Z,18.30
2023-01-17T06:20:01.831Z,24.70
2023-01-17T06:35:05.219Z,25.10
2023-01-17T06:50:13.693Z,20.50
2023-01-17T07:05:17.735Z,17.90
2023-01-17T07:20:20.870Z,47.50
2023-01-17T07:35:26.871Z,34.00
2023-01-17T07:50:30.048Z,29.90
2023-01-17T08:05:33.395Z,18.90
2023-01-17T08:20:36.723Z,17.60
2023-01-17T08:35:39.990Z,23.30
2023-01-17T08:50:43.109Z,21.70
2023-01-17T09:05:46.460Z,22.10
2023-01-17T09:20:49.725Z,17.70
2023-01-17T09:35:52.885Z,16.80
2023-01-17T09:51:14.581Z,14.90
2023-01-17T10:06:43.133Z,14.30
2023-01-17T10:21:59.358Z,10.70
2023-01-17T10:37:21.900Z,19.60
2023-01-17T10:52:48.376Z,10.90
2023-01-17T11:08:03.884Z,10.40
2023-01-17T11:23:12.749Z,11.80
2023-01-17T11:38:20.713Z,9.90
2023-01-17T12:08:33.301Z,10.80
2023-01-17T12:23:55.135Z,12.70
2023-01-17T12:39:01.326Z,10.00
2023-01-17T12:54:18.432Z,9.80
2023-01-17T13:09:23.483Z,9.70
2023-01-17T13:24:33.517Z,5.70
2023-01-17T13:40:00.847Z,5.50
2023-01-17T13:55:07.339Z,5.90
2023-01-17T14:10:28.710Z,7.50
2023-01-17T14:25:39.967Z,7.60
2023-01-17T14:41:00.668Z,13.20
2023-01-17T14:56:15.453Z,16.50
2023-01-17T15:11:24.810Z,14.10
2023-01-17T15:26:33.447Z,23.00
2023-01-17T15:41:40.224Z,14.60
2023-01-17T15:56:45.815Z,7.00
2023-01-17T16:11:49.086Z,27.60
2023-01-17T16:26:52.275Z,14.40
2023-01-17T16:42:02.879Z,31.00
2023-01-17T16:57:06.372Z,20.30
2023-01-17T17:12:09.548Z,19.90
2023-01-17T17:27:12.932Z,23.00
2023-01-17T17:42:16.088Z,10.70
2023-01-17T17:57:19.341Z,16.00
2023-01-17T18:12:33.711Z,16.20
2023-01-17T18:27:39.977Z,28.60
2023-01-17T18:42:43.137Z,38.60
2023-01-17T18:57:46.524Z,21.30
2023-01-17T19:12:50.068Z,18.60
2023-01-17T19:27:53.745Z,24.60
2023-01-17T19:42:57.309Z,43.90
2023-01-17T19:58:00.635Z,36.80
2023-01-17T20:13:04.883Z,22.80
2023-01-17T20:28:08.185Z,23.50
2023-01-17T20:43:12.250Z,20.10
2023-01-17T20:58:16.257Z,25.60
2023-01-17T21:13:20.759Z,35.70
2023-01-17T21:28:29.826Z,16.50
2023-01-17T21:43:33.644Z,12.40
2023-01-17T21:58:45.747Z,11.30
2023-01-17T22:13:49.353Z,14.60
2023-01-17T22:28:53.293Z,25.00
2023-01-17T22:43:58.859Z,14.00
2023-01-17T22:59:02.545Z,17.00
2023-01-17T23:14:08.645Z,19.90
2023-01-17T23:29:11.795Z,16.80
2023-01-17T23:44:15.356Z,36.40
2023-01-17T23:59:18.549Z,53.50
